sensor_id;sensor_type;location;lat;lon;timestamp;P1;durP1;ratioP1;P2;durP2;ratioP2
66374;SDS011;53173;52.176;5.314;2023-05-17T00:00:53;12.07;;;4.28;;
66374;SDS011;53173;52.176;5.314;2023-05-17T00:03:40;12.00;;;4.18;;
66374;SDS011;53173;52.176;5.314;2023-05-17T00:06:15;13.20;;;4.20;;
66374;SDS011;53173;52.176;5.314;2023-05-17T00:08:48;10.50;;;4.03;;
66374;SDS011;53173;52.176;5.314;2023-05-17T00:13:50;11.82;;;4.50;;
66374;SDS011;53173;52.176;5.314;2023-05-17T00:16:26;11.20;;;4.47;;
66374;SDS011;53173;52.176;5.314;2023-05-17T00:21:39;15.10;;;4.50;;
66374;SDS011;53173;52.176;5.314;2023-05-17T00:24:13;18.20;;;4.75;;
66374;SDS011;53173;52.176;5.314;2023-05-17T00:26:40;14.60;;;4.45;;
66374;SDS011;53173;52.176;5.314;2023-05-17T00:29:21;17.23;;;4.80;;
66374;SDS011;53173;52.176;5.314;2023-05-17T00:31:49;12.32;;;4.25;;
66374;SDS011;53173;52.176;5.314;2023-05-17T00:34:17;16.98;;;4.85;;
66374;SDS011;53173;52.176;5.314;2023-05-17T00:36:44;14.18;;;4.60;;
66374;SDS011;53173;52.176;5.314;2023-05-17T00:39:14;14.55;;;4.28;;
66374;SDS011;53173;52.176;5.314;2023-05-17T00:41:58;18.42;;;5.53;;
66374;SDS011;53173;52.176;5.314;2023-05-17T00:44:27;9.75;;;3.95;;
66374;SDS011;53173;52.176;5.314;2023-05-17T00:46:56;22.08;;;5.45;;
66374;SDS011;53173;52.176;5.314;2023-05-17T00:49:26;13.50;;;4.75;;
66374;SDS011;53173;52.176;5.314;2023-05-17T00:51:52;20.02;;;4.85;;
66374;SDS011;53173;52.176;5.314;2023-05-17T00:54:23;15.27;;;5.38;;
66374;SDS011;53173;52.176;5.314;2023-05-17T00:56:52;16.40;;;4.68;;
66374;SDS011;53173;52.176;5.314;2023-05-17T00:59:27;19.17;;;5.28;;
66374;SDS011;53173;52.176;5.314;2023-05-17T01:01:55;17.50;;;4.75;;
66374;SDS011;53173;52.176;5.314;2023-05-17T01:04:26;17.88;;;5.00;;
66374;SDS011;53173;52.176;5.314;2023-05-17T01:06:57;12.93;;;4.43;;
66374;SDS011;53173;52.176;5.314;2023-05-17T01:09:26;18.05;;;5.30;;
66374;SDS011;53173;52.176;5.314;2023-05-17T01:20:13;17.80;;;5.10;;
66374;SDS011;53173;52.176;5.314;2023-05-17T01:28:52;14.50;;;4.35;;
66374;SDS011;53173;52.176;5.314;2023-05-17T01:31:30;15.32;;;4.80;;
66374;SDS011;53173;52.176;5.314;2023-05-17T01:34:00;20.48;;;4.93;;
66374;SDS011;53173;52.176;5.314;2023-05-17T01:36:27;13.48;;;4.97;;
66374;SDS011;53173;52.176;5.314;2023-05-17T01:38:57;17.05;;;4.20;;
66374;SDS011;53173;52.176;5.314;2023-05-17T01:41:36;14.73;;;4.63;;
66374;SDS011;53173;52.176;5.314;2023-05-17T01:46:53;19.73;;;4.90;;
66374;SDS011;53173;52.176;5.314;2023-05-17T01:49:30;17.00;;;4.85;;
66374;SDS011;53173;52.176;5.314;2023-05-17T01:52:07;13.88;;;4.28;;
66374;SDS011;53173;52.176;5.314;2023-05-17T01:54:40;16.65;;;4.80;;
66374;SDS011;53173;52.176;5.314;2023-05-17T02:00:22;17.75;;;4.80;;
66374;SDS011;53173;52.176;5.314;2023-05-17T02:02:53;17.52;;;5.32;;
66374;SDS011;53173;52.176;5.314;2023-05-17T02:05:21;14.10;;;4.50;;
66374;SDS011;53173;52.176;5.314;2023-05-17T02:07:49;18.80;;;5.57;;
66374;SDS011;53173;52.176;5.314;2023-05-17T02:10:33;13.27;;;4.10;;
66374;SDS011;53173;52.176;5.314;2023-05-17T02:13:01;11.90;;;4.10;;
66374;SDS011;53173;52.176;5.314;2023-05-17T02:15:29;14.27;;;4.80;;
66374;SDS011;53173;52.176;5.314;2023-05-17T02:18:12;20.73;;;4.93;;
66374;SDS011;53173;52.176;5.314;2023-05-17T02:20:40;15.25;;;4.65;;
66374;SDS011;53173;52.176;5.314;2023-05-17T02:23:08;13.05;;;4.75;;
66374;SDS011;53173;52.176;5.314;2023-05-17T02:25:35;16.52;;;4.60;;
66374;SDS011;53173;52.176;5.314;2023-05-17T02:28:08;15.18;;;4.78;;
66374;SDS011;53173;52.176;5.314;2023-05-17T02:30:36;13.85;;;4.97;;
66374;SDS011;53173;52.176;5.314;2023-05-17T02:33:07;14.18;;;4.97;;
66374;SDS011;53173;52.176;5.314;2023-05-17T02:35:34;16.05;;;4.90;;
66374;SDS011;53173;52.176;5.314;2023-05-17T02:38:01;13.00;;;4.63;;
66374;SDS011;53173;52.176;5.314;2023-05-17T02:40:28;15.45;;;4.70;;
66374;SDS011;53173;52.176;5.314;2023-05-17T02:42:55;22.08;;;5.32;;
66374;SDS011;53173;52.176;5.314;2023-05-17T02:45:26;11.57;;;4.78;;
66374;SDS011;53173;52.176;5.314;2023-05-17T02:48:03;18.92;;;4.88;;
66374;SDS011;53173;52.176;5.314;2023-05-17T02:50:30;15.10;;;4.72;;
66374;SDS011;53173;52.176;5.314;2023-05-17T02:52:58;20.08;;;6.28;;
66374;SDS011;53173;52.176;5.314;2023-05-17T02:55:25;19.15;;;4.70;;
66374;SDS011;53173;52.176;5.314;2023-05-17T02:57:53;16.83;;;4.93;;
66374;SDS011;53173;52.176;5.314;2023-05-17T03:00:21;18.80;;;5.72;;
66374;SDS011;53173;52.176;5.314;2023-05-17T03:02:49;13.40;;;4.85;;
66374;SDS011;53173;52.176;5.314;2023-05-17T03:05:20;15.45;;;5.35;;
66374;SDS011;53173;52.176;5.314;2023-05-17T03:08:18;18.52;;;5.05;;
66374;SDS011;53173;52.176;5.314;2023-05-17T03:10:46;13.07;;;4.45;;
66374;SDS011;53173;52.176;5.314;2023-05-17T03:13:13;18.85;;;5.30;;
66374;SDS011;53173;52.176;5.314;2023-05-17T03:15:41;11.90;;;4.40;;
66374;SDS011;53173;52.176;5.314;2023-05-17T03:18:08;16.52;;;5.05;;
66374;SDS011;53173;52.176;5.314;2023-05-17T03:20:38;12.15;;;4.47;;
66374;SDS011;53173;52.176;5.314;2023-05-17T03:23:07;16.73;;;4.32;;
66374;SDS011;53173;52.176;5.314;2023-05-17T03:25:41;15.15;;;4.32;;
66374;SDS011;53173;52.176;5.314;2023-05-17T03:28:09;14.45;;;5.18;;
66374;SDS011;53173;52.176;5.314;2023-05-17T03:30:38;17.52;;;5.13;;
66374;SDS011;53173;52.176;5.314;2023-05-17T03:33:08;16.05;;;4.20;;
66374;SDS011;53173;52.176;5.314;2023-05-17T03:35:35;18.33;;;4.53;;
66374;SDS011;53173;52.176;5.314;2023-05-17T03:38:07;12.98;;;3.83;;
66374;SDS011;53173;52.176;5.314;2023-05-17T03:40:34;12.73;;;4.45;;
66374;SDS011;53173;52.176;5.314;2023-05-17T03:43:01;18.73;;;4.05;;
66374;SDS011;53173;52.176;5.314;2023-05-17T03:45:28;16.23;;;4.22;;
66374;SDS011;53173;52.176;5.314;2023-05-17T03:48:01;17.05;;;3.90;;
66374;SDS011;53173;52.176;5.314;2023-05-17T03:50:29;22.08;;;3.60;;
66374;SDS011;53173;52.176;5.314;2023-05-17T03:53:00;16.45;;;2.95;;
66374;SDS011;53173;52.176;5.314;2023-05-17T03:55:29;11.65;;;2.60;;
66374;SDS011;53173;52.176;5.314;2023-05-17T03:57:57;18.52;;;2.78;;
66374;SDS011;53173;52.176;5.314;2023-05-17T04:00:25;11.95;;;3.33;;
66374;SDS011;53173;52.176;5.314;2023-05-17T04:02:57;13.07;;;2.95;;
66374;SDS011;53173;52.176;5.314;2023-05-17T04:05:24;14.57;;;3.22;;
66374;SDS011;53173;52.176;5.314;2023-05-17T04:07:53;19.33;;;3.78;;
66374;SDS011;53173;52.176;5.314;2023-05-17T04:10:20;13.43;;;3.10;;
66374;SDS011;53173;52.176;5.314;2023-05-17T04:12:47;14.77;;;3.10;;
66374;SDS011;53173;52.176;5.314;2023-05-17T04:15:14;11.55;;;3.22;;
66374;SDS011;53173;52.176;5.314;2023-05-17T04:17:42;14.18;;;3.03;;
66374;SDS011;53173;52.176;5.314;2023-05-17T04:20:09;12.88;;;3.20;;
66374;SDS011;53173;52.176;5.314;2023-05-17T04:22:36;12.05;;;2.92;;
66374;SDS011;53173;52.176;5.314;2023-05-17T04:25:09;17.75;;;3.15;;
66374;SDS011;53173;52.176;5.314;2023-05-17T04:27:37;17.90;;;3.22;;
66374;SDS011;53173;52.176;5.314;2023-05-17T04:30:08;11.60;;;3.08;;
66374;SDS011;53173;52.176;5.314;2023-05-17T04:32:37;10.43;;;3.05;;
66374;SDS011;53173;52.176;5.314;2023-05-17T04:35:06;10.93;;;2.75;;
66374;SDS011;53173;52.176;5.314;2023-05-17T04:37:43;15.32;;;3.42;;
66374;SDS011;53173;52.176;5.314;2023-05-17T04:40:17;15.93;;;2.75;;
66374;SDS011;53173;52.176;5.314;2023-05-17T04:42:46;17.38;;;3.20;;
66374;SDS011;53173;52.176;5.314;2023-05-17T04:45:14;19.77;;;2.70;;
66374;SDS011;53173;52.176;5.314;2023-05-17T04:47:41;10.25;;;2.15;;
66374;SDS011;53173;52.176;5.314;2023-05-17T04:50:16;15.27;;;2.70;;
66374;SDS011;53173;52.176;5.314;2023-05-17T04:52:45;16.15;;;3.00;;
66374;SDS011;53173;52.176;5.314;2023-05-17T04:55:17;11.93;;;2.90;;
66374;SDS011;53173;52.176;5.314;2023-05-17T04:57:44;16.77;;;3.63;;
66374;SDS011;53173;52.176;5.314;2023-05-17T05:00:13;14.82;;;3.17;;
66374;SDS011;53173;52.176;5.314;2023-05-17T05:02:46;14.60;;;3.03;;
66374;SDS011;53173;52.176;5.314;2023-05-17T05:05:19;12.25;;;3.00;;
66374;SDS011;53173;52.176;5.314;2023-05-17T05:07:46;18.42;;;3.15;;
66374;SDS011;53173;52.176;5.314;2023-05-17T05:10:16;11.00;;;2.80;;
66374;SDS011;53173;52.176;5.314;2023-05-17T05:12:43;10.00;;;2.80;;
66374;SDS011;53173;52.176;5.314;2023-05-17T05:15:10;17.90;;;3.03;;
66374;SDS011;53173;52.176;5.314;2023-05-17T05:17:52;13.18;;;3.38;;
66374;SDS011;53173;52.176;5.314;2023-05-17T05:20:20;15.57;;;3.30;;
66374;SDS011;53173;52.176;5.314;2023-05-17T05:22:47;22.60;;;3.80;;
66374;SDS011;53173;52.176;5.314;2023-05-17T05:25:16;16.58;;;3.50;;
66374;SDS011;53173;52.176;5.314;2023-05-17T05:27:43;17.33;;;3.50;;
66374;SDS011;53173;52.176;5.314;2023-05-17T05:30:12;16.58;;;3.40;;
66374;SDS011;53173;52.176;5.314;2023-05-17T05:32:51;17.65;;;3.88;;
66374;SDS011;53173;52.176;5.314;2023-05-17T05:35:21;14.05;;;3.40;;
66374;SDS011;53173;52.176;5.314;2023-05-17T05:37:56;12.48;;;3.00;;
66374;SDS011;53173;52.176;5.314;2023-05-17T05:40:26;20.38;;;3.72;;
66374;SDS011;53173;52.176;5.314;2023-05-17T05:42:57;18.98;;;3.00;;
66374;SDS011;53173;52.176;5.314;2023-05-17T05:45:24;17.42;;;2.88;;
66374;SDS011;53173;52.176;5.314;2023-05-17T05:48:00;13.88;;;2.63;;
66374;SDS011;53173;52.176;5.314;2023-05-17T05:50:27;17.15;;;3.28;;
66374;SDS011;53173;52.176;5.314;2023-05-17T05:53:00;17.05;;;2.80;;
66374;SDS011;53173;52.176;5.314;2023-05-17T05:55:48;13.90;;;2.58;;
66374;SDS011;53173;52.176;5.314;2023-05-17T05:58:16;16.58;;;3.90;;
66374;SDS011;53173;52.176;5.314;2023-05-17T06:00:44;11.55;;;2.90;;
66374;SDS011;53173;52.176;5.314;2023-05-17T06:03:12;23.10;;;3.97;;
66374;SDS011;53173;52.176;5.314;2023-05-17T06:05:40;15.05;;;2.55;;
66374;SDS011;53173;52.176;5.314;2023-05-17T06:08:08;12.13;;;2.40;;
66374;SDS011;53173;52.176;5.314;2023-05-17T06:10:34;16.98;;;2.90;;
66374;SDS011;53173;52.176;5.314;2023-05-17T06:13:04;16.45;;;3.33;;
66374;SDS011;53173;52.176;5.314;2023-05-17T06:15:31;10.77;;;2.70;;
66374;SDS011;53173;52.176;5.314;2023-05-17T06:18:01;10.32;;;2.70;;
66374;SDS011;53173;52.176;5.314;2023-05-17T06:20:31;13.45;;;2.00;;
66374;SDS011;53173;52.176;5.314;2023-05-17T06:23:00;9.80;;;2.10;;
66374;SDS011;53173;52.176;5.314;2023-05-17T06:25:28;11.93;;;1.90;;
66374;SDS011;53173;52.176;5.314;2023-05-17T06:27:55;12.68;;;2.13;;
66374;SDS011;53173;52.176;5.314;2023-05-17T06:30:22;13.18;;;2.15;;
66374;SDS011;53173;52.176;5.314;2023-05-17T06:32:52;6.13;;;1.20;;
66374;SDS011;53173;52.176;5.314;2023-05-17T06:35:22;12.20;;;2.30;;
66374;SDS011;53173;52.176;5.314;2023-05-17T06:37:49;9.05;;;2.47;;
66374;SDS011;53173;52.176;5.314;2023-05-17T06:40:16;9.68;;;1.95;;
66374;SDS011;53173;52.176;5.314;2023-05-17T06:42:43;7.35;;;1.75;;
66374;SDS011;53173;52.176;5.314;2023-05-17T06:45:11;9.60;;;2.25;;
66374;SDS011;53173;52.176;5.314;2023-05-17T06:50:56;7.65;;;1.55;;
66374;SDS011;53173;52.176;5.314;2023-05-17T06:53:31;13.52;;;2.50;;
66374;SDS011;53173;52.176;5.314;2023-05-17T06:55:58;9.43;;;1.90;;
66374;SDS011;53173;52.176;5.314;2023-05-17T06:58:33;11.00;;;2.40;;
66374;SDS011;53173;52.176;5.314;2023-05-17T07:01:01;5.95;;;2.15;;
66374;SDS011;53173;52.176;5.314;2023-05-17T07:03:29;5.90;;;1.63;;
66374;SDS011;53173;52.176;5.314;2023-05-17T07:05:58;13.25;;;2.50;;
66374;SDS011;53173;52.176;5.314;2023-05-17T07:08:42;10.77;;;2.15;;
66374;SDS011;53173;52.176;5.314;2023-05-17T07:11:17;5.93;;;1.15;;
66374;SDS011;53173;52.176;5.314;2023-05-17T07:13:44;5.75;;;1.27;;
66374;SDS011;53173;52.176;5.314;2023-05-17T07:16:12;4.93;;;1.73;;
66374;SDS011;53173;52.176;5.314;2023-05-17T07:18:43;11.23;;;1.73;;
66374;SDS011;53173;52.176;5.314;2023-05-17T07:21:10;6.13;;;1.58;;
66374;SDS011;53173;52.176;5.314;2023-05-17T07:23:37;8.80;;;1.77;;
66374;SDS011;53173;52.176;5.314;2023-05-17T07:26:09;9.65;;;2.47;;
66374;SDS011;53173;52.176;5.314;2023-05-17T07:32:13;6.85;;;1.75;;
66374;SDS011;53173;52.176;5.314;2023-05-17T07:34:41;11.07;;;1.58;;
66374;SDS011;53173;52.176;5.314;2023-05-17T07:37:15;7.45;;;1.83;;
66374;SDS011;53173;52.176;5.314;2023-05-17T07:39:43;5.90;;;1.50;;
66374;SDS011;53173;52.176;5.314;2023-05-17T07:42:11;5.30;;;1.00;;
66374;SDS011;53173;52.176;5.314;2023-05-17T07:44:39;6.30;;;1.50;;
66374;SDS011;53173;52.176;5.314;2023-05-17T07:50:23;7.65;;;1.40;;
66374;SDS011;53173;52.176;5.314;2023-05-17T07:52:56;6.57;;;1.70;;
66374;SDS011;53173;52.176;5.314;2023-05-17T07:55:26;9.23;;;1.55;;
66374;SDS011;53173;52.176;5.314;2023-05-17T07:57:55;13.32;;;1.95;;
66374;SDS011;53173;52.176;5.314;2023-05-17T08:00:22;12.27;;;2.25;;
66374;SDS011;53173;52.176;5.314;2023-05-17T08:02:50;6.97;;;1.60;;
66374;SDS011;53173;52.176;5.314;2023-05-17T08:05:17;7.68;;;1.52;;
66374;SDS011;53173;52.176;5.314;2023-05-17T08:07:44;8.52;;;1.52;;
66374;SDS011;53173;52.176;5.314;2023-05-17T08:10:12;9.25;;;2.30;;
66374;SDS011;53173;52.176;5.314;2023-05-17T08:12:39;8.82;;;1.75;;
66374;SDS011;53173;52.176;5.314;2023-05-17T08:15:09;9.23;;;2.08;;
66374;SDS011;53173;52.176;5.314;2023-05-17T08:17:37;8.98;;;1.98;;
66374;SDS011;53173;52.176;5.314;2023-05-17T08:20:10;8.80;;;1.63;;
66374;SDS011;53173;52.176;5.314;2023-05-17T08:22:41;11.60;;;2.45;;
66374;SDS011;53173;52.176;5.314;2023-05-17T08:25:32;8.32;;;1.63;;
66374;SDS011;53173;52.176;5.314;2023-05-17T08:31:46;5.47;;;1.50;;
66374;SDS011;53173;52.176;5.314;2023-05-17T08:34:13;6.50;;;1.40;;
66374;SDS011;53173;52.176;5.314;2023-05-17T08:36:40;4.10;;;1.20;;
66374;SDS011;53173;52.176;5.314;2023-05-17T08:39:10;10.65;;;1.60;;
66374;SDS011;53173;52.176;5.314;2023-05-17T08:41:38;6.57;;;2.40;;
66374;SDS011;53173;52.176;5.314;2023-05-17T08:44:06;7.43;;;1.38;;
66374;SDS011;53173;52.176;5.314;2023-05-17T08:46:40;3.75;;;1.38;;
66374;SDS011;53173;52.176;5.314;2023-05-17T08:49:20;4.22;;;1.42;;
66374;SDS011;53173;52.176;5.314;2023-05-17T08:51:52;8.03;;;1.60;;
66374;SDS011;53173;52.176;5.314;2023-05-17T08:54:21;5.88;;;1.30;;
66374;SDS011;53173;52.176;5.314;2023-05-17T08:56:48;3.03;;;1.10;;
66374;SDS011;53173;52.176;5.314;2023-05-17T08:59:21;3.45;;;1.08;;
66374;SDS011;53173;52.176;5.314;2023-05-17T09:02:01;7.28;;;1.20;;
66374;SDS011;53173;52.176;5.314;2023-05-17T09:04:30;7.05;;;2.60;;
66374;SDS011;53173;52.176;5.314;2023-05-17T09:07:52;5.18;;;1.60;;
66374;SDS011;53173;52.176;5.314;2023-05-17T09:10:25;5.25;;;1.50;;
66374;SDS011;53173;52.176;5.314;2023-05-17T09:13:11;5.40;;;1.50;;
66374;SDS011;53173;52.176;5.314;2023-05-17T09:15:41;5.97;;;1.67;;
66374;SDS011;53173;52.176;5.314;2023-05-17T09:18:10;5.20;;;1.55;;
66374;SDS011;53173;52.176;5.314;2023-05-17T09:20:38;2.53;;;1.20;;
66374;SDS011;53173;52.176;5.314;2023-05-17T09:23:30;8.90;;;1.73;;
66374;SDS011;53173;52.176;5.314;2023-05-17T09:26:23;10.27;;;1.55;;
66374;SDS011;53173;52.176;5.314;2023-05-17T09:29:17;3.88;;;1.30;;
66374;SDS011;53173;52.176;5.314;2023-05-17T09:31:47;7.75;;;1.98;;
66374;SDS011;53173;52.176;5.314;2023-05-17T09:34:18;7.32;;;2.22;;
66374;SDS011;53173;52.176;5.314;2023-05-17T09:36:48;7.63;;;1.70;;
66374;SDS011;53173;52.176;5.314;2023-05-17T09:39:19;5.45;;;1.55;;
66374;SDS011;53173;52.176;5.314;2023-05-17T09:41:46;5.10;;;1.35;;
66374;SDS011;53173;52.176;5.314;2023-05-17T09:44:17;4.75;;;1.75;;
66374;SDS011;53173;52.176;5.314;2023-05-17T09:46:45;7.32;;;1.55;;
66374;SDS011;53173;52.176;5.314;2023-05-17T09:49:13;8.05;;;1.58;;
66374;SDS011;53173;52.176;5.314;2023-05-17T09:52:10;5.03;;;1.67;;
66374;SDS011;53173;52.176;5.314;2023-05-17T09:54:53;7.63;;;1.40;;
66374;SDS011;53173;52.176;5.314;2023-05-17T09:57:21;8.90;;;1.90;;
66374;SDS011;53173;52.176;5.314;2023-05-17T09:59:50;7.32;;;1.95;;
66374;SDS011;53173;52.176;5.314;2023-05-17T10:02:26;7.55;;;1.80;;
66374;SDS011;53173;52.176;5.314;2023-05-17T10:04:55;10.32;;;1.83;;
66374;SDS011;53173;52.176;5.314;2023-05-17T10:07:24;5.03;;;1.00;;
66374;SDS011;53173;52.176;5.314;2023-05-17T10:10:16;4.85;;;1.52;;
66374;SDS011;53173;52.176;5.314;2023-05-17T10:12:43;7.25;;;1.48;;
66374;SDS011;53173;52.176;5.314;2023-05-17T10:15:13;7.82;;;1.50;;
66374;SDS011;53173;52.176;5.314;2023-05-17T10:20:57;4.53;;;1.30;;
66374;SDS011;53173;52.176;5.314;2023-05-17T10:23:28;5.20;;;1.50;;
66374;SDS011;53173;52.176;5.314;2023-05-17T10:26:01;7.97;;;1.35;;
66374;SDS011;53173;52.176;5.314;2023-05-17T10:32:04;6.88;;;1.45;;
66374;SDS011;53173;52.176;5.314;2023-05-17T10:34:38;3.93;;;1.13;;
66374;SDS011;53173;52.176;5.314;2023-05-17T10:40:59;4.80;;;1.45;;
66374;SDS011;53173;52.176;5.314;2023-05-17T10:43:28;5.65;;;1.60;;
66374;SDS011;53173;52.176;5.314;2023-05-17T10:46:10;8.63;;;1.55;;
66374;SDS011;53173;52.176;5.314;2023-05-17T10:48:57;10.43;;;1.77;;
66374;SDS011;53173;52.176;5.314;2023-05-17T10:51:36;4.72;;;1.63;;
66374;SDS011;53173;52.176;5.314;2023-05-17T10:56:31;6.30;;;1.50;;
66374;SDS011;53173;52.176;5.314;2023-05-17T10:59:17;11.00;;;1.70;;
66374;SDS011;53173;52.176;5.314;2023-05-17T11:01:51;4.68;;;1.55;;
66374;SDS011;53173;52.176;5.314;2023-05-17T11:06:50;7.00;;;2.00;;
66374;SDS011;53173;52.176;5.314;2023-05-17T11:09:20;5.65;;;1.60;;
66374;SDS011;53173;52.176;5.314;2023-05-17T11:12:04;5.93;;;1.50;;
66374;SDS011;53173;52.176;5.314;2023-05-17T11:17:20;5.45;;;1.60;;
66374;SDS011;53173;52.176;5.314;2023-05-17T11:20:05;3.60;;;1.73;;
66374;SDS011;53173;52.176;5.314;2023-05-17T11:22:49;11.57;;;1.80;;
66374;SDS011;53173;52.176;5.314;2023-05-17T11:25:35;9.35;;;2.05;;
66374;SDS011;53173;52.176;5.314;2023-05-17T11:28:20;7.80;;;1.92;;
66374;SDS011;53173;52.176;5.314;2023-05-17T11:30:47;7.75;;;2.00;;
66374;SDS011;53173;52.176;5.314;2023-05-17T11:33:20;8.80;;;1.98;;
66374;SDS011;53173;52.176;5.314;2023-05-17T11:36:05;7.15;;;1.63;;
66374;SDS011;53173;52.176;5.314;2023-05-17T11:41:46;6.75;;;1.63;;
66374;SDS011;53173;52.176;5.314;2023-05-17T11:44:29;7.40;;;2.08;;
66374;SDS011;53173;52.176;5.314;2023-05-17T11:47:04;7.05;;;1.65;;
66374;SDS011;53173;52.176;5.314;2023-05-17T11:49:42;8.70;;;1.75;;
66374;SDS011;53173;52.176;5.314;2023-05-17T11:52:35;5.30;;;1.55;;
66374;SDS011;53173;52.176;5.314;2023-05-17T11:58:49;7.97;;;2.50;;
66374;SDS011;53173;52.176;5.314;2023-05-17T12:01:18;4.90;;;1.80;;
66374;SDS011;53173;52.176;5.314;2023-05-17T12:03:46;6.85;;;1.67;;
66374;SDS011;53173;52.176;5.314;2023-05-17T12:06:31;7.93;;;1.83;;
66374;SDS011;53173;52.176;5.314;2023-05-17T12:09:03;4.38;;;1.90;;
66374;SDS011;53173;52.176;5.314;2023-05-17T12:11:36;10.48;;;2.17;;
66374;SDS011;53173;52.176;5.314;2023-05-17T12:14:06;9.27;;;1.70;;
66374;SDS011;53173;52.176;5.314;2023-05-17T12:16:33;4.20;;;1.83;;
66374;SDS011;53173;52.176;5.314;2023-05-17T12:19:02;7.47;;;1.83;;
66374;SDS011;53173;52.176;5.314;2023-05-17T12:21:29;8.30;;;1.90;;
66374;SDS011;53173;52.176;5.314;2023-05-17T12:23:56;4.65;;;1.80;;
66374;SDS011;53173;52.176;5.314;2023-05-17T12:26:23;9.25;;;2.20;;
66374;SDS011;53173;52.176;5.314;2023-05-17T12:28:54;11.25;;;2.20;;
66374;SDS011;53173;52.176;5.314;2023-05-17T12:33:58;5.75;;;1.55;;
66374;SDS011;53173;52.176;5.314;2023-05-17T12:36:28;11.60;;;2.42;;
66374;SDS011;53173;52.176;5.314;2023-05-17T12:38:59;11.70;;;2.17;;
66374;SDS011;53173;52.176;5.314;2023-05-17T12:41:27;9.18;;;2.00;;
66374;SDS011;53173;52.176;5.314;2023-05-17T12:43:56;7.82;;;1.75;;
66374;SDS011;53173;52.176;5.314;2023-05-17T12:46:41;8.95;;;1.77;;
66374;SDS011;53173;52.176;5.314;2023-05-17T12:49:09;8.23;;;2.13;;
66374;SDS011;53173;52.176;5.314;2023-05-17T12:51:41;11.23;;;2.22;;
66374;SDS011;53173;52.176;5.314;2023-05-17T12:54:11;7.97;;;1.88;;
66374;SDS011;53173;52.176;5.314;2023-05-17T12:56:41;5.90;;;1.90;;
66374;SDS011;53173;52.176;5.314;2023-05-17T13:01:38;9.88;;;2.35;;
66374;SDS011;53173;52.176;5.314;2023-05-17T13:04:16;9.75;;;1.77;;
66374;SDS011;53173;52.176;5.314;2023-05-17T13:06:52;5.88;;;1.75;;
66374;SDS011;53173;52.176;5.314;2023-05-17T13:09:22;9.02;;;2.10;;
66374;SDS011;53173;52.176;5.314;2023-05-17T13:11:54;8.15;;;2.25;;
66374;SDS011;53173;52.176;5.314;2023-05-17T13:17:03;7.93;;;2.03;;
66374;SDS011;53173;52.176;5.314;2023-05-17T13:19:31;7.10;;;2.15;;
66374;SDS011;53173;52.176;5.314;2023-05-17T13:21:58;7.07;;;2.10;;
66374;SDS011;53173;52.176;5.314;2023-05-17T13:24:25;9.65;;;1.85;;
66374;SDS011;53173;52.176;5.314;2023-05-17T13:26:55;9.82;;;2.42;;
66374;SDS011;53173;52.176;5.314;2023-05-17T13:29:22;5.32;;;1.80;;
66374;SDS011;53173;52.176;5.314;2023-05-17T13:32:05;12.60;;;2.22;;
66374;SDS011;53173;52.176;5.314;2023-05-17T13:34:33;7.00;;;1.92;;
66374;SDS011;53173;52.176;5.314;2023-05-17T13:37:02;10.15;;;2.55;;
66374;SDS011;53173;52.176;5.314;2023-05-17T13:39:33;7.70;;;2.45;;
66374;SDS011;53173;52.176;5.314;2023-05-17T13:42:00;9.20;;;2.10;;
66374;SDS011;53173;52.176;5.314;2023-05-17T13:44:27;6.78;;;1.70;;
66374;SDS011;53173;52.176;5.314;2023-05-17T13:46:54;8.75;;;2.50;;
66374;SDS011;53173;52.176;5.314;2023-05-17T13:49:21;9.73;;;2.20;;
66374;SDS011;53173;52.176;5.314;2023-05-17T13:51:48;8.70;;;1.90;;
66374;SDS011;53173;52.176;5.314;2023-05-17T13:54:14;8.75;;;1.90;;
66374;SDS011;53173;52.176;5.314;2023-05-17T13:56:41;8.25;;;2.15;;
66374;SDS011;53173;52.176;5.314;2023-05-17T13:59:08;10.40;;;2.10;;
66374;SDS011;53173;52.176;5.314;2023-05-17T14:01:35;9.25;;;1.42;;
66374;SDS011;53173;52.176;5.314;2023-05-17T14:04:02;4.93;;;1.80;;
66374;SDS011;53173;52.176;5.314;2023-05-17T14:06:29;15.82;;;2.20;;
66374;SDS011;53173;52.176;5.314;2023-05-17T14:08:57;6.88;;;1.80;;
66374;SDS011;53173;52.176;5.314;2023-05-17T14:11:26;7.05;;;1.80;;
66374;SDS011;53173;52.176;5.314;2023-05-17T14:13:53;4.97;;;1.88;;
66374;SDS011;53173;52.176;5.314;2023-05-17T14:16:20;8.65;;;2.30;;
66374;SDS011;53173;52.176;5.314;2023-05-17T14:18:53;6.70;;;2.33;;
66374;SDS011;53173;52.176;5.314;2023-05-17T14:21:20;12.25;;;1.70;;
66374;SDS011;53173;52.176;5.314;2023-05-17T14:23:47;8.23;;;1.98;;
66374;SDS011;53173;52.176;5.314;2023-05-17T14:26:14;6.75;;;1.77;;
66374;SDS011;53173;52.176;5.314;2023-05-17T14:28:46;8.68;;;2.13;;
66374;SDS011;53173;52.176;5.314;2023-05-17T14:31:13;8.85;;;2.20;;
66374;SDS011;53173;52.176;5.314;2023-05-17T14:33:39;6.82;;;2.10;;
66374;SDS011;53173;52.176;5.314;2023-05-17T14:36:07;9.20;;;2.10;;
66374;SDS011;53173;52.176;5.314;2023-05-17T14:38:34;4.93;;;1.83;;
66374;SDS011;53173;52.176;5.314;2023-05-17T14:41:01;7.10;;;2.00;;
66374;SDS011;53173;52.176;5.314;2023-05-17T14:43:28;6.20;;;2.00;;
66374;SDS011;53173;52.176;5.314;2023-05-17T14:45:55;7.05;;;1.92;;
66374;SDS011;53173;52.176;5.314;2023-05-17T14:48:22;4.90;;;1.85;;
66374;SDS011;53173;52.176;5.314;2023-05-17T14:50:49;7.90;;;2.53;;
66374;SDS011;53173;52.176;5.314;2023-05-17T14:53:16;6.97;;;1.90;;
66374;SDS011;53173;52.176;5.314;2023-05-17T14:55:43;4.50;;;1.98;;
66374;SDS011;53173;52.176;5.314;2023-05-17T14:58:10;5.90;;;2.20;;
66374;SDS011;53173;52.176;5.314;2023-05-17T15:00:40;7.68;;;1.98;;
66374;SDS011;53173;52.176;5.314;2023-05-17T15:03:13;9.35;;;1.98;;
66374;SDS011;53173;52.176;5.314;2023-05-17T15:05:44;9.05;;;2.35;;
66374;SDS011;53173;52.176;5.314;2023-05-17T15:08:11;13.05;;;2.78;;
66374;SDS011;53173;52.176;5.314;2023-05-17T15:10:39;5.82;;;1.80;;
66374;SDS011;53173;52.176;5.314;2023-05-17T15:13:07;8.13;;;2.40;;
66374;SDS011;53173;52.176;5.314;2023-05-17T15:15:34;8.35;;;2.72;;
66374;SDS011;53173;52.176;5.314;2023-05-17T15:18:01;11.93;;;1.90;;
66374;SDS011;53173;52.176;5.314;2023-05-17T15:20:28;11.68;;;2.60;;
66374;SDS011;53173;52.176;5.314;2023-05-17T15:22:56;16.15;;;1.92;;
66374;SDS011;53173;52.176;5.314;2023-05-17T15:25:23;12.27;;;2.45;;
66374;SDS011;53173;52.176;5.314;2023-05-17T15:27:50;10.40;;;2.00;;
66374;SDS011;53173;52.176;5.314;2023-05-17T15:30:17;8.43;;;1.85;;
66374;SDS011;53173;52.176;5.314;2023-05-17T15:32:45;6.55;;;2.17;;
66374;SDS011;53173;52.176;5.314;2023-05-17T15:35:12;11.90;;;2.30;;
66374;SDS011;53173;52.176;5.314;2023-05-17T15:37:39;12.48;;;1.83;;
66374;SDS011;53173;52.176;5.314;2023-05-17T15:40:07;8.77;;;2.08;;
66374;SDS011;53173;52.176;5.314;2023-05-17T15:42:36;10.60;;;2.55;;
66374;SDS011;53173;52.176;5.314;2023-05-17T15:45:03;6.57;;;2.40;;
66374;SDS011;53173;52.176;5.314;2023-05-17T15:47:30;7.95;;;2.35;;
66374;SDS011;53173;52.176;5.314;2023-05-17T15:50:01;9.70;;;2.00;;
66374;SDS011;53173;52.176;5.314;2023-05-17T15:52:29;5.70;;;2.38;;
66374;SDS011;53173;52.176;5.314;2023-05-17T15:54:56;8.02;;;1.83;;
66374;SDS011;53173;52.176;5.314;2023-05-17T15:57:23;9.63;;;2.08;;
66374;SDS011;53173;52.176;5.314;2023-05-17T15:59:50;6.20;;;1.88;;
66374;SDS011;53173;52.176;5.314;2023-05-17T16:02:17;6.50;;;1.55;;
66374;SDS011;53173;52.176;5.314;2023-05-17T16:04:45;4.55;;;1.85;;
66374;SDS011;53173;52.176;5.314;2023-05-17T16:07:12;9.18;;;2.17;;
66374;SDS011;53173;52.176;5.314;2023-05-17T16:09:39;8.55;;;2.28;;
66374;SDS011;53173;52.176;5.314;2023-05-17T16:12:06;5.38;;;2.15;;
66374;SDS011;53173;52.176;5.314;2023-05-17T16:14:33;8.55;;;2.45;;